Terminal Aerodrome Forecast
Issued by NWS Tampa Bay Area, FL

Home | Current Version | Previous Version | Text Only | Print | Product List | Glossary On
Versions: 1 2 3 4 5 6 7 8 9 10 11 12 13 14 15 16 17 18 19 20 21 22 23 24 25 26
247
FTUS42 KTBW 270304 AAC
TAFTPA
TAF AMD
KTPA 270304Z 2703/2724 07006KT P6SM SKC
     FM271200 10007KT P6SM FEW015
     FM271400 12010KT P6SM SCT150
     FM271900 16009KT P6SM FEW150 SCT200
     FM272100 19008KT P6SM SCT050
     FM272300 26005KT P6SM FEW040 SCT060=

USA.gov is the U.S. government's official web portal to all federal, state and local government web resources and services.